createdAt,value
2022-10-25T00:01:56.137Z,1.98
2022-10-25T00:04:23.596Z,1.90
2022-10-25T00:06:50.916Z,2.55
2022-10-25T00:09:18.172Z,3.50
2022-10-25T00:11:45.403Z,2.67
2022-10-25T00:14:20.249Z,2.33
2022-10-25T00:16:47.528Z,2.03
2022-10-25T00:19:14.777Z,2.88
2022-10-25T00:21:42.043Z,2.42
2022-10-25T00:24:11.080Z,2.75
2022-10-25T00:26:41.160Z,2.20
2022-10-25T00:31:51.100Z,1.80
2022-10-25T00:34:18.333Z,2.90
2022-10-25T00:36:45.564Z,1.70
2022-10-25T00:39:12.799Z,2.00
2022-10-25T00:41:40.062Z,1.70
2022-10-25T00:44:38.456Z,3.13
2022-10-25T00:47:40.986Z,1.95
2022-10-25T00:50:29.872Z,3.15
2022-10-25T00:53:02.209Z,2.65
2022-10-25T00:55:29.956Z,1.80
2022-10-25T00:58:01.020Z,2.45
2022-10-25T01:00:29.576Z,2.63
2022-10-25T01:05:29.405Z,1.95
2022-10-25T01:07:57.011Z,2.47
2022-10-25T01:10:25.311Z,2.05
2022-10-25T01:12:53.437Z,2.35
2022-10-25T01:15:25.729Z,2.10
2022-10-25T01:18:09.175Z,2.00
2022-10-25T01:20:54.188Z,1.95
2022-10-25T01:23:40.941Z,2.20
2022-10-25T01:26:33.432Z,1.98
2022-10-25T01:29:20.170Z,2.03
2022-10-25T01:32:09.157Z,1.92
2022-10-25T01:34:44.881Z,1.77
2022-10-25T01:37:17.633Z,1.52
2022-10-25T01:39:51.707Z,1.95
2022-10-25T01:42:46.828Z,2.40
2022-10-25T01:45:25.853Z,1.98
2022-10-25T01:48:16.914Z,2.00
2022-10-25T01:50:47.148Z,2.47
2022-10-25T01:53:15.118Z,2.55
2022-10-25T01:55:56.826Z,2.15
2022-10-25T01:58:50.740Z,2.22
2022-10-25T02:01:55.008Z,2.25
2022-10-25T02:04:57.903Z,2.67
2022-10-25T02:07:35.366Z,1.92
2022-10-25T02:10:17.732Z,2.70
2022-10-25T02:12:56.365Z,2.00
2022-10-25T02:15:43.941Z,2.78
2022-10-25T02:18:19.438Z,2.00
2022-10-25T02:20:49.183Z,2.75
2022-10-25T02:23:18.533Z,2.20
2022-10-25T02:25:46.627Z,2.55
2022-10-25T02:28:19.496Z,2.08
2022-10-25T02:30:47.848Z,2.47
2022-10-25T02:33:15.295Z,2.88
2022-10-25T02:35:42.607Z,2.10
2022-10-25T02:38:10.084Z,2.17
2022-10-25T02:40:37.703Z,2.08
2022-10-25T02:43:05.048Z,1.80
2022-10-25T02:45:32.323Z,2.10
2022-10-25T02:47:59.651Z,2.30
2022-10-25T02:50:26.845Z,1.80
2022-10-25T02:52:54.092Z,2.05
2022-10-25T02:55:21.385Z,2.08
2022-10-25T02:57:48.629Z,2.42
2022-10-25T03:00:16.037Z,1.83
2022-10-25T03:02:43.315Z,1.85
2022-10-25T03:05:10.566Z,2.22
2022-10-25T03:07:37.868Z,2.65
2022-10-25T03:10:05.553Z,2.00
2022-10-25T03:12:32.851Z,2.17
2022-10-25T03:15:00.101Z,1.90
2022-10-25T03:17:27.311Z,2.42
2022-10-25T03:19:54.579Z,2.13
2022-10-25T03:22:21.895Z,1.85
2022-10-25T03:24:49.254Z,2.33
2022-10-25T03:27:17.739Z,2.40
2022-10-25T03:29:44.976Z,1.83
2022-10-25T03:32:12.193Z,1.90
2022-10-25T03:34:39.452Z,2.50
2022-10-25T03:37:06.664Z,2.25
2022-10-25T03:39:33.896Z,1.70
2022-10-25T03:42:01.188Z,2.05
2022-10-25T03:44:28.463Z,2.08
2022-10-25T03:46:55.682Z,1.83
2022-10-25T03:49:22.953Z,1.73
2022-10-25T03:51:52.438Z,1.60
2022-10-25T03:54:25.512Z,2.58
2022-10-25T03:56:55.661Z,1.60
2022-10-25T03:59:22.906Z,2.55
2022-10-25T04:01:50.251Z,1.90
2022-10-25T04:04:17.622Z,2.33
2022-10-25T04:06:45.015Z,2.00
2022-10-25T04:09:12.524Z,2.13
2022-10-25T04:11:39.852Z,1.98
2022-10-25T04:14:07.067Z,2.35
2022-10-25T04:16:34.294Z,3.03
2022-10-25T04:19:01.649Z,1.98
2022-10-25T04:21:29.003Z,2.00
2022-10-25T04:23:58.254Z,2.60
2022-10-25T04:26:27.828Z,2.20
2022-10-25T04:28:56.518Z,2.28
2022-10-25T04:31:24.195Z,1.98
2022-10-25T04:33:53.002Z,2.63
2022-10-25T04:36:21.342Z,1.90
2022-10-25T04:38:52.679Z,2.45
2022-10-25T04:41:21.090Z,2.58
2022-10-25T04:43:48.713Z,2.38
2022-10-25T04:46:16.050Z,2.80
2022-10-25T04:48:43.745Z,1.90
2022-10-25T04:51:12.066Z,2.30
2022-10-25T04:53:39.391Z,2.40
2022-10-25T04:56:09.368Z,1.75
2022-10-25T04:58:36.876Z,2.17
2022-10-25T05:01:08.210Z,1.88
2022-10-25T05:03:36.134Z,3.03
2022-10-25T05:06:06.467Z,2.15
2022-10-25T05:08:34.532Z,2.08
2022-10-25T05:11:02.063Z,2.33
2022-10-25T05:13:32.921Z,1.92
2022-10-25T05:16:00.670Z,2.30
2022-10-25T05:18:28.302Z,2.50
2022-10-25T05:20:57.368Z,2.83
2022-10-25T05:23:25.248Z,2.45
2022-10-25T05:26:14.827Z,2.63
2022-10-25T05:28:43.775Z,2.53
2022-10-25T05:31:16.592Z,2.35
2022-10-25T05:33:45.789Z,2.25
2022-10-25T05:36:14.091Z,2.13
2022-10-25T05:38:41.985Z,2.38
2022-10-25T05:41:11.745Z,3.10
2022-10-25T05:43:39.308Z,2.38
2022-10-25T05:46:13.939Z,2.50
2022-10-25T05:48:45.772Z,3.15
2022-10-25T05:51:38.539Z,3.10
2022-10-25T05:54:13.847Z,2.80
2022-10-25T05:56:42.160Z,2.38
2022-10-25T05:59:11.821Z,2.95
2022-10-25T06:01:42.078Z,2.72
2022-10-25T06:04:10.082Z,2.78
2022-10-25T06:06:39.249Z,4.35
2022-10-25T06:09:07.360Z,3.08
2022-10-25T06:11:34.964Z,2.80
2022-10-25T06:14:02.641Z,2.88
2022-10-25T06:16:29.976Z,3.35
2022-10-25T06:18:57.348Z,2.90
2022-10-25T06:21:28.090Z,3.75
2022-10-25T06:23:56.096Z,2.97
2022-10-25T06:26:26.054Z,2.10
2022-10-25T06:28:55.540Z,2.90
2022-10-25T06:31:23.057Z,2.25
2022-10-25T06:33:50.832Z,2.55
2022-10-25T06:36:20.293Z,2.85
2022-10-25T06:38:48.540Z,3.40
2022-10-25T06:41:21.351Z,2.67
2022-10-25T06:43:49.393Z,2.83
2022-10-25T06:46:28.167Z,2.95
2022-10-25T06:48:56.866Z,2.83
2022-10-25T06:51:26.030Z,2.90
2022-10-25T06:53:57.926Z,3.42
2022-10-25T06:56:26.520Z,2.47
2022-10-25T06:58:53.904Z,3.17
2022-10-25T07:01:22.913Z,2.97
2022-10-25T07:03:51.010Z,3.08
2022-10-25T07:06:22.548Z,3.05
2022-10-25T07:08:53.738Z,3.60
2022-10-25T07:11:21.438Z,2.92
2022-10-25T07:13:49.005Z,2.65
2022-10-25T07:16:18.669Z,3.47
2022-10-25T07:18:46.565Z,2.78
2022-10-25T07:21:20.290Z,3.35
2022-10-25T07:23:48.185Z,3.10
2022-10-25T07:26:27.663Z,2.88
2022-10-25T07:28:57.105Z,3.78
2022-10-25T07:31:33.546Z,2.90
2022-10-25T07:34:03.000Z,2.85
2022-10-25T07:36:30.750Z,3.45
2022-10-25T07:38:58.185Z,2.97
2022-10-25T07:41:26.221Z,3.75
2022-10-25T07:43:53.589Z,2.70
2022-10-25T07:46:21.029Z,2.90
2022-10-25T07:48:48.298Z,2.70
2022-10-25T07:51:17.443Z,3.13
2022-10-25T07:53:45.126Z,2.28
2022-10-25T07:56:17.381Z,2.28
2022-10-25T07:58:48.184Z,2.33
2022-10-25T08:01:21.012Z,2.15
2022-10-25T08:03:48.470Z,2.67
2022-10-25T08:06:15.775Z,2.17
2022-10-25T08:08:43.223Z,3.58
2022-10-25T08:11:10.959Z,2.35
2022-10-25T08:13:39.355Z,2.35
2022-10-25T08:16:07.366Z,2.08
2022-10-25T08:18:35.557Z,2.30
2022-10-25T08:21:04.282Z,2.83
2022-10-25T08:23:32.844Z,2.28
2022-10-25T08:26:03.643Z,2.42
2022-10-25T08:28:31.685Z,2.85
2022-10-25T08:31:01.042Z,2.38
2022-10-25T08:33:29.685Z,2.60
2022-10-25T08:36:00.597Z,2.22
2022-10-25T08:38:28.388Z,2.00
2022-10-25T08:41:09.989Z,3.03
2022-10-25T08:43:52.538Z,2.53
2022-10-25T08:46:48.869Z,4.78
2022-10-25T08:49:21.514Z,3.72
2022-10-25T08:51:50.692Z,2.28
2022-10-25T08:54:32.821Z,2.50
2022-10-25T08:57:16.290Z,3.08
2022-10-25T08:59:49.806Z,3.25
2022-10-25T09:02:46.817Z,3.40
2022-10-25T09:05:37.715Z,2.33
2022-10-25T09:08:29.230Z,2.85
2022-10-25T09:11:05.281Z,2.53
2022-10-25T09:14:03.795Z,2.80
2022-10-25T09:16:51.395Z,4.10
2022-10-25T09:19:34.779Z,2.20
2022-10-25T09:22:05.273Z,2.35
2022-10-25T09:24:40.022Z,2.40
2022-10-25T09:27:27.902Z,2.83
2022-10-25T09:30:05.080Z,2.28
2022-10-25T09:32:45.706Z,3.03
2022-10-25T09:35:28.259Z,2.45
2022-10-25T09:38:07.566Z,2.55
2022-10-25T09:40:47.943Z,1.92
2022-10-25T09:43:26.890Z,2.67
2022-10-25T09:46:05.906Z,2.67
2022-10-25T09:48:46.541Z,2.83
2022-10-25T09:51:37.835Z,1.70
2022-10-25T09:54:15.340Z,2.63
2022-10-25T09:56:42.668Z,1.75
2022-10-25T09:59:15.156Z,2.42
2022-10-25T10:01:43.200Z,2.40
2022-10-25T10:04:36.464Z,2.33
2022-10-25T10:07:26.068Z,2.03
2022-10-25T10:09:57.016Z,2.00
2022-10-25T10:12:30.544Z,2.28
2022-10-25T10:15:02.868Z,2.08
2022-10-25T10:17:30.884Z,1.75
2022-10-25T10:20:13.722Z,2.13
2022-10-25T10:22:53.344Z,2.38
2022-10-25T10:25:25.733Z,1.80
2022-10-25T10:27:56.386Z,1.70
2022-10-25T10:30:28.703Z,1.67
2022-10-25T10:33:09.423Z,2.22
2022-10-25T10:35:37.371Z,2.20
2022-10-25T10:38:21.460Z,1.73
2022-10-25T10:40:51.829Z,1.97
2022-10-25T10:43:37.439Z,1.80
2022-10-25T10:46:09.858Z,1.50
2022-10-25T10:48:42.875Z,1.40
2022-10-25T10:51:38.769Z,1.42
2022-10-25T10:54:23.827Z,1.33
2022-10-25T10:57:00.969Z,1.10
2022-10-25T10:59:39.413Z,1.40
2022-10-25T11:02:21.686Z,1.60
2022-10-25T11:04:50.946Z,1.95
2022-10-25T11:07:34.243Z,1.80
2022-10-25T11:10:16.568Z,1.35
2022-10-25T11:12:44.444Z,1.70
2022-10-25T11:15:16.135Z,1.80
2022-10-25T11:17:58.269Z,1.75
2022-10-25T11:20:44.117Z,1.88
2022-10-25T11:23:39.314Z,1.90
2022-10-25T11:26:35.707Z,2.25
2022-10-25T11:29:27.474Z,2.05
2022-10-25T11:32:15.461Z,1.95
2022-10-25T11:35:11.511Z,1.60
2022-10-25T11:37:51.306Z,1.52
2022-10-25T11:40:20.157Z,2.05
2022-10-25T11:43:06.112Z,2.35
2022-10-25T11:45:44.939Z,2.65
2022-10-25T11:48:50.141Z,1.88
2022-10-25T11:51:26.589Z,1.90
2022-10-25T11:54:15.696Z,1.90
2022-10-25T11:56:45.639Z,2.30
2022-10-25T11:59:51.033Z,1.80
2022-10-25T12:02:42.411Z,1.77
2022-10-25T12:05:21.727Z,2.00
2022-10-25T12:08:10.407Z,1.55
2022-10-25T12:10:41.092Z,1.50
2022-10-25T12:13:28.758Z,1.45
2022-10-25T12:15:57.427Z,1.85
2022-10-25T12:18:57.257Z,1.80
2022-10-25T12:21:27.901Z,2.15
2022-10-25T12:23:55.668Z,1.92
2022-10-25T12:26:34.644Z,1.80
2022-10-25T12:29:04.630Z,1.98
2022-10-25T12:31:38.054Z,1.63
2022-10-25T12:34:15.938Z,2.30
2022-10-25T12:37:06.062Z,1.75
2022-10-25T12:39:41.950Z,2.33
2022-10-25T12:42:41.499Z,1.98
2022-10-25T12:45:28.094Z,2.22
2022-10-25T12:48:16.432Z,1.90
2022-10-25T12:51:04.945Z,1.50
2022-10-25T12:53:49.259Z,1.27
2022-10-25T12:56:50.725Z,1.60
2022-10-25T12:59:41.387Z,3.33
2022-10-25T13:02:34.584Z,1.73
2022-10-25T13:05:01.811Z,1.50
2022-10-25T13:07:32.601Z,1.75
2022-10-25T13:10:14.500Z,1.60
2022-10-25T13:12:42.729Z,1.73
2022-10-25T13:15:18.762Z,1.95
2022-10-25T13:18:01.857Z,1.70
2022-10-25T13:20:35.197Z,1.90
2022-10-25T13:23:40.912Z,1.58
2022-10-25T13:28:47.124Z,1.83
2022-10-25T13:31:33.104Z,1.50
2022-10-25T13:34:12.703Z,2.55
2022-10-25T13:36:47.098Z,1.67
2022-10-25T13:39:29.221Z,1.67
2022-10-25T13:42:02.438Z,1.58
2022-10-25T13:44:30.113Z,2.10
2022-10-25T13:46:57.448Z,1.65
2022-10-25T13:49:32.914Z,1.60
2022-10-25T13:52:05.295Z,1.77
2022-10-25T13:54:51.866Z,2.00
2022-10-25T13:57:50.147Z,1.33
2022-10-25T14:00:26.681Z,1.63
2022-10-25T14:03:09.326Z,1.67
2022-10-25T14:05:54.948Z,1.23
2022-10-25T14:08:43.847Z,1.90
2022-10-25T14:11:58.778Z,1.83
2022-10-25T14:14:42.602Z,1.30
2022-10-25T14:17:40.010Z,1.35
2022-10-25T14:20:24.477Z,1.25
2022-10-25T14:22:56.951Z,1.40
2022-10-25T14:25:29.737Z,1.00
2022-10-25T14:28:07.046Z,1.15
2022-10-25T14:30:50.216Z,1.50
2022-10-25T14:33:23.408Z,1.13
2022-10-25T14:35:55.053Z,0.88
2022-10-25T14:38:27.827Z,1.42
2022-10-25T14:41:00.388Z,1.58
2022-10-25T14:43:31.199Z,1.58
2022-10-25T14:46:11.980Z,1.75
2022-10-25T14:48:40.035Z,1.23
2022-10-25T14:51:21.898Z,1.10
2022-10-25T14:54:08.393Z,1.20
2022-10-25T14:56:49.112Z,1.20
2022-10-25T14:59:28.277Z,1.30
2022-10-25T15:02:02.084Z,1.10
2022-10-25T15:04:37.881Z,1.15
2022-10-25T15:07:07.326Z,1.15
2022-10-25T15:09:42.589Z,1.00
2022-10-25T15:12:13.314Z,1.42
2022-10-25T15:14:41.561Z,1.10
2022-10-25T15:17:30.386Z,1.05
2022-10-25T15:20:00.158Z,1.10
2022-10-25T15:22:33.502Z,1.05
2022-10-25T15:25:00.840Z,0.90
2022-10-25T15:27:40.241Z,1.20
2022-10-25T15:30:34.857Z,1.30
2022-10-25T15:33:03.420Z,1.63
2022-10-25T15:35:32.472Z,1.20
2022-10-25T15:37:59.778Z,1.70
2022-10-25T15:40:27.099Z,1.20
2022-10-25T15:42:54.336Z,2.03
2022-10-25T15:45:21.708Z,1.25
2022-10-25T15:47:50.132Z,1.23
2022-10-25T15:50:19.639Z,1.58
2022-10-25T15:52:47.431Z,1.88
2022-10-25T15:55:20.028Z,1.60
2022-10-25T15:57:47.712Z,1.40
2022-10-25T16:00:27.878Z,1.63
2022-10-25T16:02:57.114Z,2.40
2022-10-25T16:05:42.430Z,2.17
2022-10-25T16:08:09.865Z,1.58
2022-10-25T16:10:37.576Z,1.92
2022-10-25T16:13:09.635Z,1.50
2022-10-25T16:15:37.072Z,2.88
2022-10-25T16:18:04.672Z,2.45
2022-10-25T16:20:36.909Z,1.98
2022-10-25T16:23:04.937Z,1.90
2022-10-25T16:25:33.294Z,2.00
2022-10-25T16:28:01.376Z,1.38
2022-10-25T16:30:34.593Z,1.90
2022-10-25T16:33:01.837Z,2.13
2022-10-25T16:35:29.131Z,1.90
2022-10-25T16:37:56.474Z,1.92
2022-10-25T16:40:23.821Z,1.77
2022-10-25T16:42:51.403Z,2.42
2022-10-25T16:45:36.850Z,1.58
2022-10-25T16:48:05.205Z,1.42
2022-10-25T16:50:33.749Z,2.25
2022-10-25T16:53:03.482Z,2.08
2022-10-25T16:55:31.427Z,2.03
2022-10-25T16:58:00.134Z,1.95
2022-10-25T17:00:29.289Z,2.45
2022-10-25T17:02:56.532Z,2.58
2022-10-25T17:05:29.137Z,2.58
2022-10-25T17:07:56.481Z,2.10
2022-10-25T17:10:23.833Z,2.10
2022-10-25T17:13:01.516Z,1.73
2022-10-25T17:15:30.452Z,2.05
2022-10-25T17:17:58.604Z,2.30
2022-10-25T17:20:26.130Z,2.00
2022-10-25T17:22:54.497Z,1.98
2022-10-25T17:25:21.804Z,1.75
2022-10-25T17:27:53.101Z,3.40
2022-10-25T17:30:20.803Z,2.92
2022-10-25T17:32:48.317Z,3.90
2022-10-25T17:35:15.582Z,3.38
2022-10-25T17:37:44.312Z,3.00
2022-10-25T17:40:13.738Z,3.55
2022-10-25T17:42:41.149Z,2.85
2022-10-25T17:45:08.930Z,3.40
2022-10-25T17:47:37.572Z,2.95
2022-10-25T17:50:05.755Z,3.25
2022-10-25T17:52:32.975Z,3.72
2022-10-25T17:55:00.937Z,3.10
2022-10-25T17:57:28.215Z,3.60
2022-10-25T17:59:58.020Z,3.95
2022-10-25T18:02:25.470Z,3.58
2022-10-25T18:05:15.424Z,3.72
2022-10-25T18:07:40.154Z,4.13
2022-10-25T18:10:07.673Z,5.15
2022-10-25T18:12:34.994Z,4.72
2022-10-25T18:15:02.299Z,4.65
2022-10-25T18:17:29.581Z,4.53
2022-10-25T18:19:56.856Z,4.72
2022-10-25T18:22:24.150Z,5.00
2022-10-25T18:24:51.618Z,5.05
2022-10-25T18:27:18.896Z,4.25
2022-10-25T18:29:46.427Z,4.40
2022-10-25T18:32:13.838Z,4.70
2022-10-25T18:34:41.107Z,4.93
2022-10-25T18:37:08.489Z,4.40
2022-10-25T18:39:35.779Z,5.15
2022-10-25T18:42:03.172Z,5.15
2022-10-25T18:44:32.813Z,5.05
2022-10-25T18:47:00.113Z,4.85
2022-10-25T18:49:27.509Z,4.97
2022-10-25T18:51:54.795Z,5.07
2022-10-25T18:54:22.070Z,4.75
2022-10-25T18:56:49.339Z,5.15
2022-10-25T18:59:16.604Z,5.22
2022-10-25T19:01:44.203Z,4.78
2022-10-25T19:04:11.516Z,3.83
2022-10-25T19:06:38.755Z,4.47
2022-10-25T19:09:06.001Z,4.55
2022-10-25T19:11:34.546Z,4.45
2022-10-25T19:14:03.033Z,4.10
2022-10-25T19:16:30.302Z,3.88
2022-10-25T19:19:02.061Z,4.30
2022-10-25T19:21:29.356Z,4.40
2022-10-25T19:23:57.062Z,5.55
2022-10-25T19:26:24.583Z,4.53
2022-10-25T19:29:00.563Z,5.07
2022-10-25T19:31:28.893Z,5.25
2022-10-25T19:34:00.058Z,5.57
2022-10-25T19:36:27.388Z,5.00
2022-10-25T19:38:55.046Z,6.20
2022-10-25T19:41:23.852Z,4.97
2022-10-25T19:43:51.738Z,4.68
2022-10-25T19:46:19.573Z,5.45
2022-10-25T19:48:46.860Z,5.38
2022-10-25T19:51:19.653Z,5.40
2022-10-25T19:53:47.627Z,5.25
2022-10-25T19:56:17.656Z,6.07
2022-10-25T19:58:45.443Z,5.30
2022-10-25T20:01:16.338Z,5.50
2022-10-25T20:03:45.678Z,5.03
2022-10-25T20:06:17.609Z,4.88
2022-10-25T20:08:47.533Z,5.00
2022-10-25T20:11:16.192Z,5.95
2022-10-25T20:13:43.563Z,6.50
2022-10-25T20:16:11.309Z,6.38
2022-10-25T20:18:39.649Z,7.32
2022-10-25T20:21:12.875Z,6.00
2022-10-25T20:23:41.623Z,5.97
2022-10-25T20:26:24.112Z,6.38
2022-10-25T20:28:56.478Z,5.95
2022-10-25T20:31:25.661Z,6.32
2022-10-25T20:33:53.294Z,6.25
2022-10-25T20:36:21.069Z,6.13
2022-10-25T20:38:48.469Z,6.15
2022-10-25T20:41:17.374Z,5.65
2022-10-25T20:43:50.020Z,5.00
2022-10-25T20:46:18.229Z,6.05
2022-10-25T20:48:46.408Z,5.32
2022-10-25T20:51:15.695Z,4.95
2022-10-25T20:53:44.349Z,5.15
2022-10-25T20:56:12.944Z,5.32
2022-10-25T20:58:40.525Z,5.78
2022-10-25T21:01:08.497Z,5.13
2022-10-25T21:03:36.111Z,5.57
2022-10-25T21:06:05.616Z,5.70
2022-10-25T21:08:33.552Z,6.07
2022-10-25T21:11:04.502Z,6.30
2022-10-25T21:13:33.615Z,6.85
2022-10-25T21:16:12.293Z,6.35
2022-10-25T21:18:40.399Z,5.57
2022-10-25T21:21:10.289Z,6.35
2022-10-25T21:23:38.046Z,6.90
2022-10-25T21:26:07.360Z,6.47
2022-10-25T21:28:37.073Z,6.13
2022-10-25T21:31:06.664Z,5.60
2022-10-25T21:33:34.008Z,5.75
2022-10-25T21:36:09.954Z,5.75
2022-10-25T21:38:37.521Z,5.82
2022-10-25T21:41:14.992Z,6.38
2022-10-25T21:43:45.078Z,6.97
2022-10-25T21:46:13.501Z,6.18
2022-10-25T21:48:41.221Z,5.93
2022-10-25T21:51:08.495Z,5.47
2022-10-25T21:53:36.013Z,5.25
2022-10-25T21:56:30.036Z,5.18
2022-10-25T21:58:59.656Z,5.35
2022-10-25T22:01:28.883Z,5.00
2022-10-25T22:03:56.628Z,5.03
2022-10-25T22:06:25.789Z,6.32
2022-10-25T22:08:54.905Z,4.82
2022-10-25T22:11:31.111Z,5.32
2022-10-25T22:14:04.080Z,4.38
2022-10-25T22:16:33.261Z,4.68
2022-10-25T22:19:12.286Z,5.10
2022-10-25T22:21:40.258Z,4.32
2022-10-25T22:24:09.133Z,4.63
2022-10-25T22:26:38.333Z,4.40
2022-10-25T22:29:06.083Z,5.65
2022-10-25T22:31:33.715Z,4.88
2022-10-25T22:34:03.874Z,4.95
2022-10-25T22:36:36.882Z,4.53
2022-10-25T22:39:05.193Z,4.75
2022-10-25T22:41:33.252Z,4.70
2022-10-25T22:44:02.132Z,5.28
2022-10-25T22:46:34.702Z,5.50
2022-10-25T22:49:07.686Z,5.10
2022-10-25T22:51:35.775Z,5.15
2022-10-25T22:54:03.156Z,4.55
2022-10-25T22:56:31.253Z,6.35
2022-10-25T22:59:01.462Z,5.35
2022-10-25T23:01:34.084Z,6.45
2022-10-25T23:04:04.074Z,5.90
2022-10-25T23:06:33.953Z,5.43
2022-10-25T23:09:03.518Z,5.60
2022-10-25T23:11:33.517Z,6.38
2022-10-25T23:14:01.917Z,5.78
2022-10-25T23:16:30.102Z,5.97
2022-10-25T23:18:57.519Z,6.22
2022-10-25T23:21:26.756Z,5.63
2022-10-25T23:23:54.660Z,5.95
2022-10-25T23:26:27.708Z,6.13
2022-10-25T23:28:56.347Z,5.70
2022-10-25T23:31:24.981Z,5.97
2022-10-25T23:33:54.090Z,6.10
2022-10-25T23:36:23.198Z,6.68
2022-10-25T23:38:51.877Z,6.18
2022-10-25T23:41:20.797Z,6.53
2022-10-25T23:43:48.724Z,6.32
2022-10-25T23:46:15.994Z,6.55
2022-10-25T23:48:43.293Z,7.07
2022-10-25T23:51:13.237Z,6.13
2022-10-25T23:53:40.884Z,6.05
2022-10-25T23:56:10.646Z,6.32
2022-10-25T23:58:38.987Z,5.40
